Terminal Aerodrome Forecast
Issued by NWS

Home | Current Version | Previous Version | Text Only | Print | Product List | Glossary On
Versions: 1 2 3 4 5 6 7 8 9 10 11 12 13 14 15
069
FTAK31 PAJN 260527
TAFAPG
TAF
PAPG 260527Z 2606/2706 VRB03KT P6SM VCSH SCT025 BKN050
     FM261000 VRB05KT 6SM -RA BR SCT015 OVC025
     FM261800 05005KT 4SM -RA BR BKN015 OVC025
     FM270300 VRB03KT 6SM -RA BR SCT015 OVC025
      AMD LTD TO CLD VIS AND WIND 2606/2615=

USA.gov is the U.S. government's official web portal to all federal, state and local government web resources and services.